Time;durP1;ratioP1;P1;durP2;ratioP2;P2;SDS_P1;SDS_P2;PMS_P1;PMS_P2;Temp;Humidity;BMP_temperature;BMP_pressure;BME280_temperature;BME280_humidity;BME280_pressure;Samples;Min_cycle;Max_cycle;Signal;HPM_P1;HPM_P2
2023/10/17 00:02:26;;;;;;;3.30;3.00;;;;;;;5.83;60.96;101964.88;5021832;27;96797;-75
2023/10/17 00:04:52;;;;;;;3.40;2.80;;;;;;;5.80;61.00;101952.84;5022832;27;97808;-75
2023/10/17 00:07:17;;;;;;;3.20;3.00;;;;;;;5.78;61.10;101968.22;5025813;27;97887;-75
2023/10/17 00:09:42;;;;;;;5.40;3.67;;;;;;;5.78;61.06;101951.75;5021513;27;96967;-76
2023/10/17 00:14:57;;;;;;;3.53;3.33;;;;;;;5.78;60.96;101957.25;5018481;27;97833;-75
2023/10/17 00:17:22;;;;;;;3.13;2.93;;;;;;;5.72;60.93;101956.31;5024650;27;97591;-75
2023/10/17 00:19:50;;;;;;;3.90;3.30;;;;;;;5.72;60.96;101959.81;5021910;27;96740;-75
2023/10/17 00:22:19;;;;;;;3.70;3.40;;;;;;;5.70;60.94;101959.50;5022813;27;97494;-75
2023/10/17 00:24:47;;;;;;;4.43;3.30;;;;;;;5.69;60.90;101951.72;5020033;27;99640;-75
2023/10/17 00:27:14;;;;;;;6.90;3.23;;;;;;;5.65;60.91;101962.06;5023016;27;97378;-75
2023/10/17 00:29:39;;;;;;;3.90;3.53;;;;;;;5.64;60.96;101966.00;5023301;27;96757;-75
2023/10/17 00:32:08;;;;;;;6.50;3.30;;;;;;;5.60;60.67;101968.13;5022746;27;96991;-75
2023/10/17 00:34:34;;;;;;;3.97;3.47;;;;;;;5.55;60.67;101981.22;5022464;27;97225;-75
2023/10/17 00:37:11;;;;;;;3.30;3.00;;;;;;;5.49;60.94;101963.81;5020865;27;97522;-75
2023/10/17 00:39:38;;;;;;;3.37;3.07;;;;;;;5.48;60.87;101961.50;5021275;27;97173;-73
2023/10/17 00:44:31;;;;;;;4.00;3.40;;;;;;;5.42;60.88;101960.56;5022539;27;98131;-75
2023/10/17 00:46:58;;;;;;;4.03;3.23;;;;;;;5.40;60.73;101971.22;5016490;27;99318;-75
2023/10/17 00:49:25;;;;;;;3.60;3.27;;;;;;;5.38;60.95;101948.94;5022229;27;97395;-76
2023/10/17 00:51:55;;;;;;;4.20;3.10;;;;;;;5.33;60.79;101953.03;5023468;27;97564;-75
2023/10/17 00:54:24;;;;;;;3.57;3.27;;;;;;;5.30;60.66;101959.41;5019132;27;100911;-76
2023/10/17 00:56:50;;;;;;;4.13;3.63;;;;;;;5.31;60.47;101968.41;5018594;27;98887;-75
2023/10/17 00:59:15;;;;;;;5.17;3.50;;;;;;;5.24;60.52;101952.22;5023237;27;98084;-75
2023/10/17 01:01:41;;;;;;;3.00;2.77;;;;;;;5.18;60.75;101948.53;5021839;27;97166;-75
2023/10/17 01:04:06;;;;;;;4.40;3.37;;;;;;;5.15;60.62;101946.69;5019686;27;100506;-75
2023/10/17 01:11:41;;;;;;;3.20;2.97;;;;;;;5.05;60.90;101953.31;5021491;27;96752;-75
2023/10/17 01:14:08;;;;;;;3.10;2.90;;;;;;;4.99;60.67;101933.94;5022349;27;97469;-75
2023/10/17 01:16:34;;;;;;;2.60;2.50;;;;;;;4.99;60.74;101944.91;5024821;27;97221;-75
2023/10/17 01:19:05;;;;;;;4.97;3.20;;;;;;;4.98;60.81;101948.84;5021196;27;97248;-75
2023/10/17 01:21:30;;;;;;;3.83;3.53;;;;;;;4.95;60.57;101943.50;5024987;27;97233;-75
2023/10/17 01:23:56;;;;;;;3.60;3.27;;;;;;;4.92;60.46;101939.66;5027081;27;97942;-75
2023/10/17 01:26:23;;;;;;;3.10;2.90;;;;;;;4.87;60.57;101948.44;5027002;27;97457;-76
2023/10/17 01:28:53;;;;;;;4.10;3.00;;;;;;;4.83;60.49;101950.53;5025687;27;97247;-75
2023/10/17 01:31:22;;;;;;;3.00;2.80;;;;;;;4.79;60.51;101945.19;5024587;27;97016;-75
2023/10/17 01:33:50;;;;;;;3.33;3.13;;;;;;;4.73;60.38;101946.19;5039199;27;100540;-75
2023/10/17 01:36:17;;;;;;;4.57;3.60;;;;;;;4.70;60.57;101938.84;5022596;27;99123;-75
2023/10/17 01:38:43;;;;;;;5.07;3.00;;;;;;;4.66;60.44;101932.72;5025476;27;96707;-74
2023/10/17 01:41:12;;;;;;;3.63;3.17;;;;;;;4.60;60.35;101921.53;5024706;27;97397;-76
2023/10/17 01:43:47;;;;;;;3.63;2.50;;;;;;;4.58;60.36;101925.94;5025704;27;97243;-75
2023/10/17 01:46:15;;;;;;;2.80;2.60;;;;;;;4.49;60.54;101928.59;5023672;27;100485;-75
2023/10/17 01:48:48;;;;;;;2.70;2.50;;;;;;;4.51;60.57;101940.66;5026565;27;97317;-75
2023/10/17 01:51:17;;;;;;;2.60;2.40;;;;;;;4.41;60.10;101925.31;5021369;27;97574;-75
2023/10/17 01:53:48;;;;;;;4.50;2.40;;;;;;;4.31;60.45;101937.41;5026900;27;97529;-75
2023/10/17 01:56:14;;;;;;;4.20;2.53;;;;;;;4.27;60.42;101936.78;5025527;27;100175;-75
2023/10/17 01:58:48;;;;;;;3.10;2.83;;;;;;;4.21;60.39;101927.56;5025318;27;96798;-75
2023/10/17 02:01:17;;;;;;;2.90;2.60;;;;;;;4.18;60.63;101919.47;5024235;27;97052;-75
2023/10/17 02:03:43;;;;;;;2.93;2.73;;;;;;;4.14;60.47;101911.38;5025320;27;97373;-75
2023/10/17 02:06:16;;;;;;;2.60;2.43;;;;;;;4.13;60.17;101922.75;5041106;27;97574;-75
2023/10/17 02:08:45;;;;;;;2.40;2.30;;;;;;;4.09;60.27;101914.66;5026602;27;98138;-74
2023/10/17 02:11:23;;;;;;;2.90;2.70;;;;;;;4.04;60.32;101920.69;5025896;27;97650;-75
2023/10/17 02:13:56;;;;;;;2.60;2.50;;;;;;;3.93;60.14;101921.03;5023984;27;97693;-75
2023/10/17 02:16:31;;;;;;;2.43;2.33;;;;;;;3.81;60.24;101932.75;5024271;27;97073;-75
2023/10/17 02:18:58;;;;;;;2.37;2.17;;;;;;;3.71;60.25;101933.06;5021190;27;97171;-75
2023/10/17 02:21:25;;;;;;;2.40;2.30;;;;;;;3.66;60.39;101928.94;5024027;27;97015;-75
2023/10/17 02:23:51;;;;;;;2.60;2.40;;;;;;;3.66;60.39;101922.69;5023176;27;100194;-75
2023/10/17 02:26:21;;;;;;;2.53;2.40;;;;;;;3.65;60.66;101930.13;5023086;27;98092;-75
2023/10/17 02:28:51;;;;;;;2.20;2.00;;;;;;;3.65;60.27;101932.84;5025651;27;96766;-74
2023/10/17 02:31:17;;;;;;;2.70;2.20;;;;;;;3.65;60.59;101937.56;5039170;27;97287;-75
2023/10/17 02:33:43;;;;;;;4.50;2.00;;;;;;;3.61;60.71;101934.94;5039009;27;99086;-75
2023/10/17 02:36:12;;;;;;;1.83;1.73;;;;;;;3.60;60.48;101925.19;5023220;27;97428;-75
2023/10/17 02:38:41;;;;;;;2.33;2.23;;;;;;;3.59;60.62;101922.88;5021005;27;97176;-75
2023/10/17 02:41:09;;;;;;;1.80;1.70;;;;;;;3.59;60.34;101926.41;5022776;27;97598;-75
2023/10/17 02:43:37;;;;;;;2.00;1.90;;;;;;;3.56;60.44;101930.00;5023500;27;96868;-75
2023/10/17 02:46:04;;;;;;;1.90;1.70;;;;;;;3.57;60.51;101941.72;5022322;27;97877;-75
2023/10/17 02:48:37;;;;;;;1.90;1.80;;;;;;;3.51;60.44;101933.25;5022999;27;96885;-75
2023/10/17 02:51:03;;;;;;;1.63;1.53;;;;;;;3.53;60.65;101941.84;5023522;27;97020;-75
2023/10/17 02:53:34;;;;;;;2.03;1.93;;;;;;;3.49;60.32;101943.88;5023767;27;97104;-74
2023/10/17 02:56:18;;;;;;;2.33;2.13;;;;;;;3.47;60.21;101929.88;5024935;27;98525;-75
2023/10/17 02:58:50;;;;;;;2.50;1.90;;;;;;;3.47;60.05;101945.53;5026004;27;96899;-75
2023/10/17 03:01:17;;;;;;;1.73;1.63;;;;;;;3.43;60.17;101942.13;5022120;27;97304;-75
2023/10/17 03:03:43;;;;;;;4.60;1.67;;;;;;;3.40;60.17;101948.47;5027106;27;100443;-75
2023/10/17 03:06:09;;;;;;;3.40;1.77;;;;;;;3.35;60.55;101944.31;5022602;27;100153;-75
2023/10/17 03:08:37;;;;;;;3.70;1.90;;;;;;;3.33;60.63;101941.25;5025901;27;97444;-75
2023/10/17 03:11:08;;;;;;;1.97;1.83;;;;;;;3.31;60.34;101946.38;5023876;27;96946;-75
2023/10/17 03:13:40;;;;;;;2.30;2.10;;;;;;;3.32;59.98;101956.13;5021160;27;99156;-75
2023/10/17 03:16:17;;;;;;;2.10;2.00;;;;;;;3.27;60.40;101948.47;5025350;27;97539;-75
2023/10/17 03:18:50;;;;;;;2.03;1.93;;;;;;;3.20;60.24;101938.50;5025564;27;96986;-75
2023/10/17 03:21:18;;;;;;;2.30;2.20;;;;;;;3.24;60.54;101941.13;5019799;27;98278;-75
2023/10/17 03:23:48;;;;;;;1.90;1.80;;;;;;;3.20;60.07;101954.13;5024904;27;97143;-75
2023/10/17 03:26:17;;;;;;;2.47;2.20;;;;;;;3.16;60.17;101954.22;5017811;27;99430;-75
2023/10/17 03:28:42;;;;;;;2.50;2.30;;;;;;;3.11;60.29;101953.97;5026084;27;96667;-75
2023/10/17 03:31:10;;;;;;;2.63;2.40;;;;;;;3.11;59.92;101943.03;5024451;27;97536;-75
2023/10/17 03:33:40;;;;;;;2.60;2.50;;;;;;;3.09;60.05;101940.75;5024784;27;97449;-75
2023/10/17 03:36:05;;;;;;;3.40;2.50;;;;;;;3.04;60.07;101940.50;5023410;27;97587;-75
2023/10/17 03:38:33;;;;;;;2.00;1.90;;;;;;;3.02;60.05;101940.16;5022874;27;97357;-75
2023/10/17 03:41:24;;;;;;;2.57;2.10;;;;;;;3.01;60.05;101939.41;5019920;27;97402;-75
2023/10/17 03:43:52;;;;;;;2.33;2.17;;;;;;;3.01;59.95;101938.66;5022945;27;97704;-75
2023/10/17 03:46:18;;;;;;;2.37;1.80;;;;;;;2.99;60.07;101947.28;5017892;27;99119;-75
2023/10/17 03:48:52;;;;;;;2.23;1.63;;;;;;;2.93;59.92;101938.06;5022347;27;97082;-75
2023/10/17 03:51:27;;;;;;;1.17;1.13;;;;;;;2.88;59.89;101935.06;5021875;27;97044;-75
2023/10/17 03:53:53;;;;;;;1.83;1.73;;;;;;;2.84;59.93;101928.94;5005331;28;98083;-75
2023/10/17 03:56:25;;;;;;;1.37;1.30;;;;;;;2.80;59.87;101937.25;5012670;28;98124;-75
2023/10/17 03:58:57;;;;;;;1.70;1.60;;;;;;;2.77;59.94;101934.63;5015799;27;97385;-75
2023/10/17 04:01:23;;;;;;;1.50;1.40;;;;;;;2.71;60.18;101934.38;5016537;27;98114;-75
2023/10/17 04:03:53;;;;;;;1.80;1.70;;;;;;;2.69;59.92;101941.47;5019696;28;96850;-75
2023/10/17 04:06:23;;;;;;;3.50;1.70;;;;;;;2.62;59.63;101938.91;5017960;27;98352;-75
2023/10/17 04:08:48;;;;;;;1.40;1.40;;;;;;;2.55;59.60;101945.31;5033159;27;97533;-75
2023/10/17 04:13:51;;;;;;;3.20;1.70;;;;;;;2.41;59.85;101943.72;5016929;28;97249;-74
2023/10/17 04:16:33;;;;;;;2.00;1.60;;;;;;;2.36;59.72;101943.47;5014982;28;97278;-75
2023/10/17 04:19:00;;;;;;;1.80;1.70;;;;;;;2.26;59.99;101944.47;5020111;28;96991;-75
2023/10/17 04:23:55;;;;;;;4.10;1.70;;;;;;;2.14;59.84;101945.16;5019981;28;97040;-75
2023/10/17 04:26:34;;;;;;;1.67;1.57;;;;;;;2.08;59.95;101944.13;5035100;27;98986;-74
2023/10/17 04:29:00;;;;;;;2.07;1.80;;;;;;;2.02;60.30;101941.16;5018864;28;97103;-75
2023/10/17 04:31:28;;;;;;;2.63;1.70;;;;;;;2.00;59.83;101932.63;5019101;28;97070;-75
2023/10/17 04:34:09;;;;;;;2.70;1.87;;;;;;;1.96;60.23;101931.16;5019951;28;98992;-75
2023/10/17 04:36:38;;;;;;;2.93;1.50;;;;;;;1.95;60.20;101924.16;5021076;28;97480;-75
2023/10/17 04:44:36;;;;;;;1.53;1.43;;;;;;;2.04;60.46;101930.56;5017637;28;97555;-75
2023/10/17 04:49:30;;;;;;;1.30;1.20;;;;;;;2.01;60.21;101936.88;5020901;28;96971;-74
2023/10/17 04:55:13;;;;;;;2.53;1.43;;;;;;;1.98;60.20;101939.69;4940019;28;97365;-75
2023/10/17 05:03:14;;;;;;;1.03;1.03;;;;;;;1.92;60.23;101938.66;5023426;28;97892;-75
2023/10/17 05:08:49;;;;;;;1.90;1.40;;;;;;;1.91;60.56;101940.63;5024434;28;97112;-75
2023/10/17 06:16:52;;;;;;;1.50;1.40;;;;;;;1.60;60.31;101988.47;5023073;28;97395;-74
2023/10/17 06:19:21;;;;;;;1.70;1.60;;;;;;;1.62;60.04;102002.44;5021016;27;97296;-74
2023/10/17 06:27:51;;;;;;;2.00;1.90;;;;;;;1.61;60.18;101992.75;5020304;28;97269;-75
2023/10/17 06:32:48;;;;;;;1.80;1.70;;;;;;;1.60;60.08;101985.75;5023002;28;97193;-74
2023/10/17 06:35:20;;;;;;;1.90;1.80;;;;;;;1.61;60.02;101988.03;5021614;27;99444;-75
2023/10/17 06:37:49;;;;;;;2.10;1.90;;;;;;;1.63;60.30;101996.56;5022037;28;97490;-74
2023/10/17 06:40:16;;;;;;;1.50;1.50;;;;;;;1.65;60.03;102004.34;5023287;27;96922;-73
2023/10/17 06:42:58;;;;;;;1.43;1.33;;;;;;;1.69;60.31;102003.09;5023569;27;96704;-74
2023/10/17 06:45:23;;;;;;;1.53;1.43;;;;;;;1.71;60.00;101997.19;5021314;28;98472;-74
2023/10/17 06:47:49;;;;;;;1.50;1.40;;;;;;;1.70;60.21;101995.66;5022340;27;97100;-74
2023/10/17 06:55:22;;;;;;;1.20;1.10;;;;;;;1.75;59.94;102015.03;5021774;28;97465;-74
2023/10/17 06:57:52;;;;;;;0.93;0.90;;;;;;;1.77;60.28;102020.06;5022551;28;97287;-74
2023/10/17 07:00:42;;;;;;;1.23;1.10;;;;;;;1.80;60.29;102019.22;5021380;28;97619;-73
2023/10/17 07:03:03;;;;;;;1.60;1.03;;;;;;;1.83;60.21;102016.41;5021170;28;97804;-74
2023/10/17 07:05:32;;;;;;;0.87;0.70;;;;;;;1.85;60.36;102028.88;5019718;28;97583;-74
2023/10/17 07:07:59;;;;;;;1.17;0.80;;;;;;;1.87;60.26;102015.56;5022155;28;97147;-74
2023/10/17 07:13:39;;;;;;;0.80;0.80;;;;;;;1.95;60.42;102009.53;5019985;28;97271;-75
2023/10/17 07:16:11;;;;;;;0.80;0.80;;;;;;;1.91;60.35;101999.88;5021556;27;97201;-75
2023/10/17 07:18:44;;;;;;;1.23;1.13;;;;;;;1.96;60.27;102007.59;5021590;28;96886;-74
2023/10/17 07:21:25;;;;;;;1.00;1.00;;;;;;;1.99;60.74;101998.53;5021534;27;97677;-74
2023/10/17 07:23:55;;;;;;;1.10;1.10;;;;;;;2.02;60.50;102008.59;5023072;27;97143;-75
2023/10/17 07:28:56;;;;;;;1.00;1.00;;;;;;;2.08;60.48;102021.34;5018996;28;97072;-73
2023/10/17 07:31:22;;;;;;;1.17;1.17;;;;;;;2.12;60.29;102015.78;5020941;28;97099;-73
2023/10/17 07:33:53;;;;;;;1.10;1.10;;;;;;;2.12;60.54;102016.56;5021145;28;97077;-74
2023/10/17 07:36:19;;;;;;;1.60;1.27;;;;;;;2.17;60.17;102023.47;5019175;28;97193;-74
2023/10/17 07:38:45;;;;;;;1.20;1.20;;;;;;;2.21;60.24;102008.56;5019276;27;96735;-74
2023/10/17 07:41:13;;;;;;;1.30;1.20;;;;;;;2.28;60.60;102005.66;5019300;28;96972;-74
2023/10/17 07:43:44;;;;;;;0.97;0.97;;;;;;;2.32;60.34;102009.06;5020154;28;97955;-74
2023/10/17 07:46:26;;;;;;;1.30;1.20;;;;;;;2.39;60.26;102013.63;5019904;28;97599;-74
2023/10/17 07:48:51;;;;;;;1.17;0.93;;;;;;;2.40;60.03;102006.97;5019269;27;99628;-74
2023/10/17 07:51:17;;;;;;;1.60;1.50;;;;;;;2.41;60.36;102006.56;5022342;28;97301;-74
2023/10/17 07:53:46;;;;;;;1.57;1.50;;;;;;;2.47;60.53;102009.53;5018236;28;98589;-74
2023/10/17 07:56:25;;;;;;;1.43;1.33;;;;;;;2.52;60.45;102000.81;5018438;28;98097;-74
2023/10/17 07:59:04;;;;;;;1.43;1.33;;;;;;;2.57;60.26;102017.44;5021598;28;97512;-75
2023/10/17 08:01:41;;;;;;;2.47;1.27;;;;;;;2.64;60.36;102015.75;5019356;28;97415;-74
2023/10/17 08:04:53;;;;;;;1.63;1.53;;;;;;;2.66;60.39;102005.19;5036185;27;100547;-74
2023/10/17 08:06:53;;;;;;;1.47;1.37;;;;;;;2.71;60.20;102007.38;5015309;28;97614;-74
2023/10/17 08:09:24;;;;;;;1.77;1.37;;;;;;;2.79;60.23;102014.22;5020996;28;99608;-75
2023/10/17 08:11:51;;;;;;;1.50;1.40;;;;;;;2.83;60.65;102009.41;5017211;28;97068;-74
2023/10/17 08:14:18;;;;;;;1.50;1.40;;;;;;;2.87;60.84;102010.09;5019183;28;98292;-74
2023/10/17 08:16:44;;;;;;;1.43;1.33;;;;;;;2.92;60.68;102020.50;5019777;27;97625;-75
2023/10/17 08:19:13;;;;;;;1.80;1.70;;;;;;;2.99;60.68;102009.38;5018057;28;97271;-74
2023/10/17 08:35:02;;;;;;;1.37;1.23;;;;;;;3.47;60.86;102020.16;5024114;28;97639;-74
2023/10/17 08:37:39;;;;;;;1.37;1.27;;;;;;;3.57;60.65;102016.38;5022353;28;100501;-74
2023/10/17 08:40:29;;;;;;;1.17;1.00;;;;;;;3.64;61.15;102016.16;5040333;27;96904;-75
2023/10/17 08:42:51;;;;;;;0.90;0.90;;;;;;;3.72;60.91;102003.81;5023398;28;97335;-75
2023/10/17 08:45:18;;;;;;;3.93;1.57;;;;;;;3.84;61.08;102005.78;5022927;28;97596;-75
2023/10/17 08:47:43;;;;;;;3.70;1.37;;;;;;;3.94;61.31;102004.72;5040011;27;99339;-75
2023/10/17 08:50:09;;;;;;;1.40;1.30;;;;;;;4.05;61.17;102015.34;5022565;27;97224;-74
2023/10/17 08:52:35;;;;;;;1.43;1.33;;;;;;;4.16;61.41;102004.06;5021442;27;97631;-75
2023/10/17 08:55:05;;;;;;;20.33;1.63;;;;;;;4.30;61.36;102009.09;5022558;27;98009;-74
2023/10/17 08:57:31;;;;;;;3.03;1.40;;;;;;;4.43;61.28;102001.63;5023353;28;99959;-74
2023/10/17 09:02:35;;;;;;;1.53;1.43;;;;;;;4.67;61.66;102006.28;5021524;27;97169;-75
2023/10/17 09:05:25;;;;;;;1.57;1.47;;;;;;;4.81;62.02;101996.84;5035213;27;100847;-75
2023/10/17 09:07:55;;;;;;;1.77;1.67;;;;;;;4.96;61.72;101999.84;5039145;27;99461;-75
2023/10/17 09:10:28;;;;;;;5.27;2.83;;;;;;;5.11;61.96;101996.16;5024619;28;99527;-75
2023/10/17 09:15:57;;;;;;;2.47;1.67;;;;;;;5.36;61.91;101996.06;5024030;28;97437;-75
2023/10/17 09:18:27;;;;;;;1.77;1.67;;;;;;;5.51;62.12;101988.84;5025250;27;97152;-75
2023/10/17 09:20:57;;;;;;;1.73;1.63;;;;;;;5.64;61.82;101993.47;5022850;28;97288;-75
2023/10/17 09:23:24;;;;;;;3.17;1.90;;;;;;;5.73;62.05;101980.56;5023124;28;97044;-75
2023/10/17 09:26:01;;;;;;;2.33;2.13;;;;;;;5.92;62.58;101995.13;5021051;28;96971;-75
2023/10/17 09:28:28;;;;;;;2.60;2.03;;;;;;;6.03;62.27;102000.97;5024050;28;97250;-75
2023/10/17 09:31:16;;;;;;;4.07;2.10;;;;;;;6.16;62.66;101994.16;5023345;27;97170;-75
2023/10/17 09:33:43;;;;;;;1.57;1.20;;;;;;;6.32;62.28;101993.16;5021355;28;97316;-75
2023/10/17 09:36:09;;;;;;;4.73;2.03;;;;;;;6.45;62.37;101993.03;5036873;27;99415;-75
2023/10/17 09:38:41;;;;;;;3.53;1.67;;;;;;;6.53;62.52;101986.78;5022784;27;97517;-73
2023/10/17 09:41:08;;;;;;;4.00;2.13;;;;;;;6.67;62.45;101983.47;5022185;28;96985;-75
2023/10/17 09:43:36;;;;;;;1.57;1.40;;;;;;;6.80;62.44;101986.09;5023074;28;97597;-75
2023/10/17 09:46:02;;;;;;;4.63;1.80;;;;;;;6.89;62.35;101994.34;5020282;28;100168;-75
2023/10/17 09:48:36;;;;;;;1.57;1.47;;;;;;;6.98;62.80;101980.59;5022844;28;97762;-75
2023/10/17 09:51:02;;;;;;;6.10;1.30;;;;;;;7.07;62.42;101978.59;5017051;28;97262;-75
2023/10/17 09:53:32;;;;;;;1.87;1.77;;;;;;;7.18;62.49;101980.13;5024167;27;97334;-75
2023/10/17 09:56:01;;;;;;;2.60;1.20;;;;;;;7.23;62.55;101976.72;5019379;27;100181;-75
2023/10/17 09:58:31;;;;;;;0.97;0.90;;;;;;;7.34;62.59;101999.03;5023307;28;97180;-75
2023/10/17 10:01:05;;;;;;;2.53;1.07;;;;;;;7.43;62.46;101988.78;5022272;28;98189;-75
2023/10/17 10:03:35;;;;;;;1.20;0.83;;;;;;;7.56;62.38;101988.59;5021760;28;97087;-75
2023/10/17 10:06:21;;;;;;;4.07;1.10;;;;;;;7.67;63.06;101977.88;5020356;28;99484;-75
2023/10/17 10:08:47;;;;;;;2.10;0.87;;;;;;;7.67;62.31;101975.88;5021727;27;100296;-75
2023/10/17 10:11:12;;;;;;;2.50;0.93;;;;;;;7.78;62.21;101989.16;5023788;28;97166;-75
2023/10/17 10:14:03;;;;;;;2.00;0.77;;;;;;;7.91;62.70;101973.19;5022382;28;97485;-75
2023/10/17 10:16:49;;;;;;;0.80;0.70;;;;;;;8.04;62.12;101970.22;5021245;28;97333;-75
2023/10/17 10:19:15;;;;;;;3.40;1.10;;;;;;;8.15;61.88;101985.03;5021604;28;97390;-75
2023/10/17 10:21:55;;;;;;;2.33;1.40;;;;;;;8.26;61.53;101998.31;5023279;28;96740;-74
2023/10/17 10:24:39;;;;;;;2.10;1.27;;;;;;;8.33;61.18;101964.91;5038237;27;98874;-75
2023/10/17 10:27:23;;;;;;;3.63;1.03;;;;;;;8.43;61.31;101972.63;5020292;28;97682;-75
2023/10/17 10:29:52;;;;;;;2.50;0.97;;;;;;;8.51;61.26;101978.56;5023751;28;97048;-76
2023/10/17 10:32:42;;;;;;;2.00;0.80;;;;;;;8.57;60.98;101967.66;5022591;28;96852;-74
2023/10/17 10:35:07;;;;;;;4.20;1.73;;;;;;;8.62;61.18;101978.81;5022513;28;97151;-76
2023/10/17 10:37:54;;;;;;;1.80;1.37;;;;;;;8.65;60.96;101968.81;5020497;28;96912;-75
2023/10/17 10:40:25;;;;;;;3.70;1.20;;;;;;;8.68;61.25;101959.59;5014730;28;99557;-75
2023/10/17 10:42:58;;;;;;;2.50;1.07;;;;;;;8.79;60.72;101954.31;5021621;28;96983;-76
2023/10/17 10:45:40;;;;;;;1.77;0.97;;;;;;;8.84;61.06;101965.44;5020176;27;97647;-75
2023/10/17 10:48:17;;;;;;;1.67;1.30;;;;;;;8.86;60.65;101964.97;5016956;27;98961;-75
2023/10/17 10:50:44;;;;;;;2.77;1.50;;;;;;;8.86;60.64;101954.69;5021778;28;97540;-75
2023/10/17 10:53:23;;;;;;;1.83;1.10;;;;;;;8.89;60.45;101958.50;5023004;28;97205;-75
2023/10/17 10:56:02;;;;;;;1.47;1.37;;;;;;;8.88;60.53;101959.75;5022005;28;97960;-75
2023/10/17 10:58:41;;;;;;;1.80;1.00;;;;;;;9.02;60.68;101957.00;5021979;28;97834;-75
2023/10/17 11:01:07;;;;;;;4.37;1.50;;;;;;;9.16;60.46;101958.25;5020319;28;97385;-76
2023/10/17 11:03:41;;;;;;;2.93;1.33;;;;;;;9.27;59.59;101961.22;5022409;28;97556;-75
2023/10/17 11:06:10;;;;;;;1.70;1.47;;;;;;;9.40;60.15;101953.44;5019511;27;97165;-75
2023/10/17 11:08:43;;;;;;;1.60;1.50;;;;;;;9.55;59.88;101943.16;5023182;27;97235;-75
2023/10/17 11:11:15;;;;;;;1.63;0.90;;;;;;;9.65;59.82;101944.56;5021873;28;97633;-75
2023/10/17 11:13:45;;;;;;;3.73;1.10;;;;;;;9.84;59.75;101936.81;5023316;28;96820;-75
2023/10/17 11:16:12;;;;;;;2.13;1.00;;;;;;;10.03;59.40;101933.34;5020902;28;97145;-75
2023/10/17 11:18:40;;;;;;;1.10;0.90;;;;;;;10.25;58.96;101934.88;5020241;28;98385;-75
2023/10/17 11:21:08;;;;;;;1.57;0.90;;;;;;;10.36;58.51;101930.25;5021019;27;97398;-75
2023/10/17 11:23:37;;;;;;;3.07;1.03;;;;;;;10.61;58.75;101934.31;5021813;27;97067;-75
2023/10/17 11:26:07;;;;;;;2.10;1.00;;;;;;;10.85;58.40;101937.63;5019920;28;97158;-75
2023/10/17 11:28:32;;;;;;;1.43;0.90;;;;;;;11.06;57.80;101938.38;5035876;27;98895;-75
2023/10/17 11:30:58;;;;;;;2.53;0.83;;;;;;;11.18;57.84;101945.53;5036809;27;98648;-76
2023/10/17 11:33:37;;;;;;;1.53;0.83;;;;;;;11.42;57.19;101941.22;5022780;28;98929;-75
2023/10/17 11:36:12;;;;;;;1.50;0.70;;;;;;;11.68;57.40;101932.84;5021175;28;96792;-77
2023/10/17 11:38:38;;;;;;;1.77;1.17;;;;;;;11.93;57.05;101943.16;5023413;28;97274;-75
2023/10/17 11:41:05;;;;;;;1.00;0.80;;;;;;;12.03;56.44;101936.13;5038046;27;100227;-76
2023/10/17 11:43:58;;;;;;;1.23;0.80;;;;;;;11.89;55.22;101925.19;5021792;28;96657;-76
2023/10/17 11:46:33;;;;;;;5.53;0.80;;;;;;;11.70;55.94;101935.16;5022054;28;97315;-75
2023/10/17 11:49:52;;;;;;;3.00;0.90;;;;;;;11.51;55.89;101926.44;5019058;27;100089;-75
2023/10/17 11:52:10;;;;;;;1.37;0.70;;;;;;;11.41;57.16;101919.56;5016972;28;97655;-76
2023/10/17 11:55:00;;;;;;;1.00;0.80;;;;;;;11.33;56.41;101918.47;5020930;27;97136;-76
2023/10/17 11:57:33;;;;;;;3.03;1.20;;;;;;;11.29;57.23;101912.38;5022110;27;97204;-75
2023/10/17 12:00:19;;;;;;;2.30;1.30;;;;;;;11.61;56.80;101913.16;5019916;28;97980;-75
2023/10/17 12:02:48;;;;;;;2.87;1.07;;;;;;;12.06;56.24;101906.66;5021235;28;97415;-75
2023/10/17 12:05:27;;;;;;;2.40;1.07;;;;;;;12.27;56.01;101905.25;5020962;28;96719;-76
2023/10/17 12:07:53;;;;;;;1.00;0.90;;;;;;;12.45;55.53;101915.91;5019937;28;97802;-75
2023/10/17 12:10:20;;;;;;;0.60;0.60;;;;;;;12.29;55.39;101904.75;5022118;27;97995;-76
2023/10/17 12:12:46;;;;;;;1.80;0.73;;;;;;;12.09;55.68;101912.00;5022033;27;97137;-76
2023/10/17 12:15:13;;;;;;;3.07;0.80;;;;;;;11.84;55.84;101895.41;5019648;27;97453;-76
2023/10/17 12:17:40;;;;;;;1.10;0.50;;;;;;;11.65;55.87;101899.81;5020001;27;97037;-76
2023/10/17 12:20:16;;;;;;;2.30;0.73;;;;;;;11.52;56.25;101895.47;5019875;28;97240;-76
2023/10/17 12:22:42;;;;;;;1.57;0.60;;;;;;;11.39;56.34;101899.88;5020034;28;96603;-75
2023/10/17 12:25:11;;;;;;;1.57;0.60;;;;;;;11.30;56.63;101892.53;5020882;27;97083;-76
2023/10/17 12:27:39;;;;;;;1.23;0.80;;;;;;;11.21;56.79;101894.69;5022442;27;97954;-75
2023/10/17 12:30:08;;;;;;;1.33;0.60;;;;;;;11.15;56.72;101889.13;5019485;27;97343;-75
2023/10/17 12:32:34;;;;;;;3.90;0.73;;;;;;;11.08;56.85;101881.25;5021801;27;97489;-74
2023/10/17 12:34:59;;;;;;;3.07;0.73;;;;;;;11.00;56.83;101882.94;5021639;28;97082;-75
2023/10/17 12:37:24;;;;;;;2.80;0.90;;;;;;;10.94;56.98;101873.78;5021762;28;97510;-75
2023/10/17 12:39:50;;;;;;;2.00;0.77;;;;;;;10.88;56.94;101873.00;5020426;27;97279;-76
2023/10/17 12:42:15;;;;;;;2.07;0.67;;;;;;;10.82;57.04;101886.03;5021031;28;97263;-76
2023/10/17 12:44:40;;;;;;;1.13;0.63;;;;;;;10.76;56.96;101868.56;5021702;28;97446;-76
2023/10/17 12:47:06;;;;;;;2.50;0.80;;;;;;;10.72;56.91;101851.41;5018448;27;97012;-75
2023/10/17 12:49:31;;;;;;;10.33;0.70;;;;;;;10.67;56.87;101858.44;5015454;27;100345;-75
2023/10/17 12:51:57;;;;;;;1.37;1.00;;;;;;;10.65;57.08;101851.84;5020580;28;97118;-75
2023/10/17 12:54:26;;;;;;;0.70;0.70;;;;;;;10.65;57.12;101843.56;5021690;28;97334;-75
2023/10/17 12:56:52;;;;;;;0.70;0.53;;;;;;;10.81;57.42;101833.91;5020489;28;98295;-75
2023/10/17 12:59:17;;;;;;;2.40;0.77;;;;;;;11.36;57.21;101843.44;5020503;27;98074;-75
2023/10/17 13:01:44;;;;;;;1.43;1.20;;;;;;;11.86;56.43;101826.34;5022387;28;104080;-75
2023/10/17 13:04:09;;;;;;;1.70;1.00;;;;;;;12.38;55.91;101830.34;5020533;27;97226;-76
2023/10/17 13:06:38;;;;;;;2.73;0.80;;;;;;;12.76;55.05;101842.81;5034377;27;97682;-76
2023/10/17 13:09:04;;;;;;;3.77;1.10;;;;;;;13.13;54.61;101840.59;5019122;28;97872;-76
2023/10/17 13:11:30;;;;;;;1.67;0.70;;;;;;;13.40;54.08;101837.03;5021857;27;99822;-76
2023/10/17 13:13:57;;;;;;;1.97;0.80;;;;;;;13.55;53.43;101831.94;5023302;28;97364;-75
2023/10/17 13:16:26;;;;;;;0.70;0.57;;;;;;;13.64;53.31;101844.81;5024596;28;97168;-75
2023/10/17 13:18:56;;;;;;;1.20;0.70;;;;;;;13.75;53.43;101831.63;5024071;28;97381;-76
2023/10/17 13:21:25;;;;;;;2.30;0.60;;;;;;;13.76;53.13;101835.19;5023346;28;97071;-76
2023/10/17 13:23:50;;;;;;;0.90;0.70;;;;;;;13.76;53.20;101829.63;5041256;27;97312;-76
2023/10/17 13:26:18;;;;;;;0.90;0.70;;;;;;;13.83;53.22;101834.66;5018520;28;97111;-76
2023/10/17 13:28:44;;;;;;;1.40;0.80;;;;;;;13.85;52.95;101828.56;5021562;28;100067;-77
2023/10/17 13:31:14;;;;;;;1.80;0.70;;;;;;;13.84;52.38;101825.06;5022441;28;96891;-76
2023/10/17 13:33:44;;;;;;;2.50;0.50;;;;;;;13.79;52.82;101823.03;5020832;28;96957;-76
2023/10/17 13:36:10;;;;;;;1.37;1.00;;;;;;;13.80;53.05;101823.81;5023083;28;97119;-76
2023/10/17 13:38:37;;;;;;;1.10;0.70;;;;;;;13.81;52.81;101826.06;5037581;27;99158;-76
2023/10/17 13:41:09;;;;;;;0.97;0.73;;;;;;;13.79;52.49;101816.72;5021619;27;97349;-76
2023/10/17 13:43:34;;;;;;;0.80;0.80;;;;;;;13.75;52.79;101806.59;5039865;27;97257;-77
2023/10/17 13:46:00;;;;;;;3.53;0.60;;;;;;;13.77;52.89;101805.34;5023245;28;97151;-76
2023/10/17 13:48:27;;;;;;;0.80;0.50;;;;;;;13.78;53.01;101810.38;5012384;28;100275;-76
2023/10/17 13:50:52;;;;;;;2.10;0.67;;;;;;;13.80;52.76;101832.88;5040296;27;99378;-77
2023/10/17 13:53:18;;;;;;;1.50;0.53;;;;;;;13.72;52.82;101818.75;5018847;27;97082;-76
2023/10/17 13:55:43;;;;;;;3.40;0.50;;;;;;;13.64;52.98;101812.22;5022037;27;97597;-76
2023/10/17 13:58:09;;;;;;;1.03;0.53;;;;;;;13.66;52.47;101814.47;5022201;28;97296;-76
2023/10/17 14:00:43;;;;;;;1.87;0.53;;;;;;;13.63;52.67;101810.69;5022238;28;96874;-76
2023/10/17 14:03:13;;;;;;;3.43;0.53;;;;;;;13.63;52.00;101821.81;5019587;27;97582;-77
2023/10/17 14:05:44;;;;;;;0.70;0.50;;;;;;;13.56;52.50;101818.78;5021129;28;97448;-76